Time;durP1;ratioP1;P1;durP2;ratioP2;P2;SDS_P1;SDS_P2;PMS_P1;PMS_P2;Temp;Humidity;BMP_temperature;BMP_pressure;BME280_temperature;BME280_humidity;BME280_pressure;Samples;Min_cycle;Max_cycle;Signal;HPM_P1;HPM_P2
2022/04/30 00:02:06;;;;;;;18.30;13.43;;;;;;;9.54;75.85;93833.19;5031410;28;20180;-41
2022/04/30 00:04:35;;;;;;;19.80;13.30;;;;;;;9.56;75.28;93830.63;5045571;28;20052;-41
2022/04/30 00:07:01;;;;;;;20.58;13.00;;;;;;;9.59;75.62;93829.59;5050924;28;20024;-41
2022/04/30 00:09:27;;;;;;;26.73;17.80;;;;;;;9.72;75.89;93837.84;5051199;28;20112;-41
2022/04/30 00:11:53;;;;;;;19.92;13.32;;;;;;;9.84;74.72;93833.53;5051166;28;20498;-40
2022/04/30 00:14:18;;;;;;;18.33;13.90;;;;;;;9.83;74.67;93829.31;5051095;28;20021;-40
2022/04/30 00:16:43;;;;;;;22.35;14.43;;;;;;;9.91;74.38;93828.13;5050967;28;20398;-41
2022/04/30 00:19:10;;;;;;;18.38;12.23;;;;;;;9.96;74.18;93829.28;5051026;28;20565;-40
2022/04/30 00:21:35;;;;;;;21.35;14.07;;;;;;;9.99;74.47;93830.22;5050758;28;20104;-41
2022/04/30 00:24:01;;;;;;;23.42;13.38;;;;;;;10.10;74.03;93830.72;5050699;28;20517;-40
2022/04/30 00:26:27;;;;;;;19.35;13.38;;;;;;;9.98;74.13;93828.75;5050632;28;20036;-40
2022/04/30 00:28:53;;;;;;;18.73;11.60;;;;;;;10.01;74.79;93825.63;5050012;28;20025;-40
2022/04/30 00:31:18;;;;;;;20.23;14.70;;;;;;;9.87;75.00;93829.72;5050801;28;20029;-40
2022/04/30 00:33:47;;;;;;;17.15;12.75;;;;;;;9.92;74.53;93810.28;5050754;28;20078;-41
2022/04/30 00:36:14;;;;;;;17.30;12.63;;;;;;;10.12;74.09;93819.91;5050678;28;20078;-41
2022/04/30 00:38:40;;;;;;;16.60;11.60;;;;;;;10.02;74.51;93824.38;5050732;28;20036;-40
2022/04/30 00:41:08;;;;;;;16.52;11.40;;;;;;;9.92;76.02;93824.06;5050394;28;20510;-40
2022/04/30 00:43:47;;;;;;;18.63;12.70;;;;;;;10.01;75.66;93816.63;5049927;28;20047;-38
2022/04/30 00:46:16;;;;;;;17.92;11.55;;;;;;;10.07;76.11;93829.00;5050295;28;20021;-38
2022/04/30 00:48:42;;;;;;;18.90;12.73;;;;;;;10.17;75.61;93826.56;5050650;28;20048;-38
2022/04/30 00:51:12;;;;;;;17.83;12.70;;;;;;;10.03;74.54;93827.88;5050604;28;20506;-38
2022/04/30 00:53:39;;;;;;;19.00;13.20;;;;;;;10.00;74.43;93824.19;5050684;28;20021;-38
2022/04/30 00:56:06;;;;;;;28.55;17.40;;;;;;;10.07;75.13;93817.97;5050406;28;20060;-37
2022/04/30 00:58:32;;;;;;;27.25;16.23;;;;;;;10.27;73.85;93827.56;5048983;28;20029;-37
2022/04/30 01:01:01;;;;;;;22.90;15.43;;;;;;;10.30;73.83;93832.03;5050507;28;20517;-38
2022/04/30 01:03:26;;;;;;;21.08;15.68;;;;;;;10.23;74.21;93832.69;5050162;28;20486;-37
2022/04/30 01:05:52;;;;;;;22.42;14.50;;;;;;;10.06;74.80;93821.28;5050346;28;20029;-37
2022/04/30 01:08:19;;;;;;;26.15;16.58;;;;;;;10.10;75.82;93833.47;5039574;28;20032;-37
2022/04/30 01:10:45;;;;;;;23.95;13.90;;;;;;;10.14;75.83;93830.38;5049792;28;20078;-37
2022/04/30 01:13:13;;;;;;;20.65;12.75;;;;;;;10.12;76.40;93828.19;5049078;28;20037;-37
2022/04/30 01:15:39;;;;;;;20.15;14.25;;;;;;;10.18;74.92;93828.06;5050289;28;20021;-37
2022/04/30 01:18:07;;;;;;;18.83;13.50;;;;;;;10.14;74.95;93827.63;5050298;28;20087;-39
2022/04/30 01:20:34;;;;;;;23.33;14.80;;;;;;;9.86;75.39;93798.66;5049062;28;20047;-40
2022/04/30 01:23:04;;;;;;;21.63;14.02;;;;;;;10.07;75.81;93817.97;5050253;28;20082;-40
2022/04/30 01:25:33;;;;;;;19.15;13.50;;;;;;;10.10;75.60;93816.91;5050177;28;20027;-41
2022/04/30 01:28:02;;;;;;;22.17;13.75;;;;;;;10.00;75.84;93815.16;5049946;28;20021;-41
2022/04/30 01:30:28;;;;;;;17.48;12.32;;;;;;;10.00;76.06;93817.91;5049986;28;20024;-41
2022/04/30 01:38:22;;;;;;;17.42;12.98;;;;;;;10.03;75.65;93801.00;5050036;28;20032;-41
2022/04/30 01:40:48;;;;;;;19.48;13.45;;;;;;;10.03;75.89;93803.06;5051081;28;20483;-41
2022/04/30 01:43:14;;;;;;;21.15;14.00;;;;;;;9.84;76.74;93798.44;5053023;28;20073;-41
2022/04/30 01:45:40;;;;;;;20.75;13.75;;;;;;;9.68;77.36;93793.31;5053653;28;20031;-41
2022/04/30 01:48:06;;;;;;;18.40;12.55;;;;;;;9.67;77.94;93794.56;5053904;28;20025;-40
2022/04/30 01:50:35;;;;;;;22.83;13.57;;;;;;;9.73;77.23;93786.91;5053846;28;20442;-41
2022/04/30 01:53:01;;;;;;;19.08;12.98;;;;;;;9.75;77.42;93790.63;5053576;28;20036;-40
2022/04/30 01:55:27;;;;;;;20.02;14.35;;;;;;;9.52;78.58;93800.66;5053435;28;20033;-41
2022/04/30 01:57:52;;;;;;;20.35;14.38;;;;;;;9.46;79.05;93780.00;5053607;28;20083;-41
2022/04/30 02:00:20;;;;;;;21.02;14.68;;;;;;;9.52;78.52;93777.84;5053762;28;20029;-41
2022/04/30 02:02:48;;;;;;;20.52;14.40;;;;;;;9.77;78.84;93790.06;5053688;28;20025;-42
2022/04/30 02:05:14;;;;;;;23.23;14.02;;;;;;;9.71;78.18;93789.47;5053203;28;20032;-41
2022/04/30 02:07:46;;;;;;;24.33;16.42;;;;;;;9.63;78.45;93796.91;5053585;28;20116;-41
2022/04/30 02:10:12;;;;;;;25.13;16.13;;;;;;;9.53;78.94;93791.09;5053158;28;20036;-41
2022/04/30 02:12:38;;;;;;;20.40;14.93;;;;;;;9.68;78.28;93799.53;5053227;28;20025;-41
2022/04/30 02:15:04;;;;;;;21.58;14.82;;;;;;;9.64;78.25;93795.63;5053038;28;20035;-41
2022/04/30 02:17:30;;;;;;;20.67;13.85;;;;;;;9.63;77.82;93777.63;5053276;28;20033;-42
2022/04/30 02:22:42;;;;;;;18.20;12.85;;;;;;;9.51;78.02;93781.88;5053259;28;20102;-41
2022/04/30 02:25:09;;;;;;;17.90;12.73;;;;;;;9.48;79.01;93791.22;5052069;28;20024;-42
2022/04/30 02:27:56;;;;;;;20.88;14.50;;;;;;;9.58;78.71;93787.50;5052902;28;20556;-43
2022/04/30 02:30:23;;;;;;;20.42;13.40;;;;;;;9.47;79.14;93790.47;5052847;28;20025;-42
2022/04/30 02:32:52;;;;;;;19.60;13.02;;;;;;;9.42;78.58;93774.78;5053090;28;20105;-41
2022/04/30 02:35:25;;;;;;;21.25;15.40;;;;;;;9.52;78.39;93777.84;5052786;28;20036;-41
2022/04/30 02:37:52;;;;;;;26.52;17.90;;;;;;;9.53;78.45;93782.81;5052848;28;20041;-42
2022/04/30 02:40:18;;;;;;;22.92;15.13;;;;;;;9.54;78.74;93784.31;5052691;28;20028;-42
2022/04/30 02:42:45;;;;;;;23.02;15.70;;;;;;;9.47;79.23;93787.72;5052116;28;20057;-41
2022/04/30 02:45:14;;;;;;;19.17;13.38;;;;;;;9.59;78.25;93779.97;5052855;28;20224;-38
2022/04/30 02:47:43;;;;;;;22.75;15.10;;;;;;;9.50;78.61;93788.69;5052824;28;20472;-37
2022/04/30 02:50:10;;;;;;;18.42;13.32;;;;;;;9.27;79.39;93754.59;5052846;28;20033;-37
2022/04/30 02:52:36;;;;;;;23.45;14.88;;;;;;;9.49;79.65;93787.19;5051379;28;20035;-37
2022/04/30 02:55:03;;;;;;;20.05;13.65;;;;;;;9.31;80.08;93788.84;5052710;28;20577;-37
2022/04/30 03:00:31;;;;;;;20.13;13.20;;;;;;;9.35;80.02;93789.25;5052644;28;20549;-37
2022/04/30 03:02:56;;;;;;;20.63;14.50;;;;;;;9.48;79.11;93780.94;5052238;28;20028;-37
2022/04/30 03:05:22;;;;;;;18.92;14.13;;;;;;;9.39;79.25;93789.66;5052126;28;20036;-37
2022/04/30 03:07:48;;;;;;;28.35;15.32;;;;;;;9.52;78.83;93794.41;5052183;28;20032;-37
2022/04/30 03:10:14;;;;;;;23.23;14.90;;;;;;;9.47;79.02;93786.97;5050818;28;20482;-37
2022/04/30 03:12:39;;;;;;;20.30;14.65;;;;;;;9.43;79.00;93783.81;5052420;28;20265;-39
2022/04/30 03:15:06;;;;;;;19.77;13.77;;;;;;;9.26;80.23;93781.41;5051837;28;20403;-38
2022/04/30 03:22:59;;;;;;;19.15;13.35;;;;;;;8.94;81.15;93780.81;5052188;28;20051;-39
2022/04/30 03:25:25;;;;;;;21.50;14.00;;;;;;;8.85;80.73;93784.72;5052074;28;20502;-40
2022/04/30 03:27:50;;;;;;;22.95;15.00;;;;;;;8.91;80.78;93781.84;5052081;28;20031;-38
2022/04/30 03:30:16;;;;;;;25.48;13.57;;;;;;;8.89;80.62;93784.41;5051973;28;20418;-39
2022/04/30 03:32:42;;;;;;;20.75;13.27;;;;;;;8.74;80.26;93784.19;5051715;28;20486;-39
2022/04/30 03:35:09;;;;;;;25.08;14.40;;;;;;;8.66;81.78;93786.84;5051620;28;20090;-40
2022/04/30 03:37:35;;;;;;;21.98;14.63;;;;;;;8.59;81.58;93792.97;5051031;28;20048;-39
2022/04/30 03:40:01;;;;;;;21.98;14.30;;;;;;;8.45;81.99;93794.19;5051847;28;20029;-40
2022/04/30 03:42:27;;;;;;;20.23;13.02;;;;;;;8.44;81.76;93784.47;5050846;28;20036;-41
2022/04/30 03:44:53;;;;;;;19.42;12.80;;;;;;;8.58;81.50;93788.72;5051211;28;20052;-41
2022/04/30 03:47:20;;;;;;;20.38;13.25;;;;;;;8.32;81.15;93794.16;5051583;28;20028;-40
2022/04/30 03:49:45;;;;;;;19.88;14.13;;;;;;;8.33;81.41;93795.66;5051509;28;20032;-38
2022/04/30 03:52:11;;;;;;;29.48;14.88;;;;;;;8.43;81.31;93796.75;5051257;28;20110;-38
2022/04/30 03:54:37;;;;;;;18.95;12.98;;;;;;;8.32;81.14;93797.66;5051551;28;20025;-38
2022/04/30 03:57:03;;;;;;;17.40;12.32;;;;;;;8.35;80.86;93788.38;5051347;28;20498;-37
2022/04/30 03:59:28;;;;;;;18.50;13.07;;;;;;;8.39;81.15;93801.81;5051392;28;20025;-41
2022/04/30 04:01:54;;;;;;;19.63;13.68;;;;;;;8.43;81.79;93801.50;5050512;28;20490;-43
2022/04/30 04:04:19;;;;;;;22.80;14.32;;;;;;;8.47;81.78;93799.91;5051112;28;20082;-41
2022/04/30 04:06:45;;;;;;;21.80;13.57;;;;;;;8.61;81.22;93804.19;5051034;28;20095;-40
2022/04/30 04:09:10;;;;;;;17.65;11.82;;;;;;;8.40;80.78;93814.31;5050954;28;20032;-40
2022/04/30 04:11:36;;;;;;;17.20;12.57;;;;;;;8.27;81.45;93792.28;5051225;28;20033;-40
2022/04/30 04:19:30;;;;;;;18.23;13.02;;;;;;;8.35;82.43;93807.63;5050220;28;20044;-40
2022/04/30 04:21:56;;;;;;;17.75;13.50;;;;;;;8.53;81.50;93817.09;5050588;28;20091;-39
2022/04/30 04:27:06;;;;;;;19.75;12.32;;;;;;;9.13;81.53;93800.72;5050859;28;20027;-39
2022/04/30 04:29:31;;;;;;;17.38;11.57;;;;;;;9.73;79.26;93806.22;5050054;28;20478;-38
2022/04/30 04:31:57;;;;;;;18.35;11.40;;;;;;;10.13;75.91;93813.13;5049730;28;20033;-39
2022/04/30 04:34:22;;;;;;;16.95;12.77;;;;;;;10.11;75.40;93803.88;5050001;28;20286;-39
2022/04/30 04:36:48;;;;;;;15.70;12.15;;;;;;;10.28;75.19;93804.97;5050275;28;20028;-39
2022/04/30 04:39:14;;;;;;;19.30;13.63;;;;;;;10.37;74.87;93798.97;5049516;28;20021;-39
2022/04/30 04:41:44;;;;;;;23.65;16.85;;;;;;;10.53;74.56;93806.13;5044451;28;20464;-39
2022/04/30 04:44:10;;;;;;;21.77;17.20;;;;;;;10.89;74.15;93802.69;5050189;28;20484;-39
2022/04/30 04:46:37;;;;;;;23.52;16.98;;;;;;;11.42;72.50;93798.97;5049719;28;20032;-39
2022/04/30 04:49:04;;;;;;;21.33;15.32;;;;;;;11.89;70.15;93806.19;5050614;28;20033;-39
2022/04/30 04:51:29;;;;;;;17.02;12.88;;;;;;;12.16;68.58;93805.31;5049440;28;20063;-39
2022/04/30 04:53:55;;;;;;;19.73;13.68;;;;;;;12.33;67.60;93806.81;5050524;28;20052;-39
2022/04/30 04:56:22;;;;;;;16.45;12.68;;;;;;;12.40;67.41;93811.63;5050087;28;20549;-39
2022/04/30 04:58:48;;;;;;;16.52;12.23;;;;;;;12.22;67.97;93807.91;5048630;28;20457;-40
2022/04/30 05:01:13;;;;;;;16.40;12.88;;;;;;;12.18;69.19;93807.53;5050520;28;20025;-40
2022/04/30 05:03:38;;;;;;;17.05;12.55;;;;;;;12.21;68.53;93809.22;5044850;28;20100;-41
2022/04/30 05:06:05;;;;;;;16.92;12.82;;;;;;;12.04;69.21;93784.81;5050112;28;20406;-38
2022/04/30 05:08:30;;;;;;;15.52;12.88;;;;;;;12.30;70.07;93803.13;5050333;28;20111;-39
2022/04/30 05:10:56;;;;;;;16.77;12.98;;;;;;;12.36;68.91;93803.72;5049388;28;20410;-40
2022/04/30 05:13:21;;;;;;;16.65;11.98;;;;;;;12.49;68.78;93808.31;5032596;28;20468;-39
2022/04/30 05:15:47;;;;;;;15.75;11.85;;;;;;;12.69;68.10;93810.19;5043791;28;20029;-40
2022/04/30 05:18:12;;;;;;;16.63;11.55;;;;;;;12.84;66.98;93815.72;5052434;28;20029;-40
2022/04/30 05:20:38;;;;;;;13.85;11.25;;;;;;;12.84;66.92;93816.44;5052786;28;20032;-39
2022/04/30 05:23:04;;;;;;;15.55;10.88;;;;;;;12.83;66.88;93806.69;5052664;28;20029;-40
2022/04/30 05:25:30;;;;;;;14.05;11.35;;;;;;;12.90;67.29;93828.13;5044572;28;20029;-40
2022/04/30 05:27:56;;;;;;;13.40;11.05;;;;;;;13.08;66.98;93820.72;5046550;28;20032;-40
2022/04/30 05:30:22;;;;;;;12.68;10.05;;;;;;;13.39;65.59;93836.00;5053986;28;20033;-40
2022/04/30 05:32:48;;;;;;;13.35;11.00;;;;;;;13.51;65.50;93826.00;5053606;28;20411;-40
2022/04/30 05:35:13;;;;;;;14.35;11.05;;;;;;;14.05;63.80;93823.78;5053847;28;20028;-40
2022/04/30 05:37:40;;;;;;;15.80;11.32;;;;;;;14.52;62.68;93828.53;5054210;28;20017;-40
2022/04/30 05:40:06;;;;;;;14.20;10.50;;;;;;;14.61;60.89;93816.81;5054020;28;20110;-39
2022/04/30 05:42:32;;;;;;;13.65;11.13;;;;;;;14.70;61.50;93830.84;5053673;28;20040;-40
2022/04/30 05:44:58;;;;;;;15.60;12.23;;;;;;;14.80;61.08;93828.16;5054051;28;20045;-41
2022/04/30 05:47:24;;;;;;;18.13;13.18;;;;;;;14.91;61.69;93836.78;5053605;28;20096;-43
2022/04/30 05:49:50;;;;;;;13.07;11.65;;;;;;;14.64;61.25;93824.03;5053727;28;20128;-39
2022/04/30 05:52:15;;;;;;;13.45;10.90;;;;;;;14.93;60.89;93850.84;5053770;28;20017;-38
2022/04/30 05:54:40;;;;;;;12.77;11.32;;;;;;;15.25;60.55;93846.50;5053866;28;20483;-40
2022/04/30 05:57:06;;;;;;;14.23;10.93;;;;;;;15.38;60.01;93844.16;5053391;28;20414;-40
2022/04/30 05:59:31;;;;;;;12.82;10.85;;;;;;;15.62;59.13;93845.44;5053431;28;20025;-40
2022/04/30 06:01:57;;;;;;;17.60;9.52;;;;;;;16.17;57.25;93839.44;5053011;28;20032;-40
2022/04/30 06:04:22;;;;;;;12.95;9.48;;;;;;;16.65;56.08;93844.00;5047535;28;20033;-40
2022/04/30 06:06:48;;;;;;;11.15;8.93;;;;;;;17.28;54.89;93837.66;5040606;28;20096;-41
2022/04/30 06:09:14;;;;;;;10.45;8.48;;;;;;;18.54;51.02;93828.72;5052813;28;20029;-41
2022/04/30 06:11:40;;;;;;;9.65;8.43;;;;;;;19.39;46.40;93838.91;5053195;28;20911;-41
2022/04/30 06:14:06;;;;;;;9.75;8.45;;;;;;;19.98;46.82;93828.78;5053133;28;20090;-41
2022/04/30 06:16:32;;;;;;;13.25;10.10;;;;;;;20.31;44.20;93829.59;5053041;28;20105;-42
2022/04/30 06:18:57;;;;;;;12.98;8.45;;;;;;;20.58;44.51;93831.97;5053401;28;20021;-42
2022/04/30 06:21:23;;;;;;;7.63;6.90;;;;;;;20.83;42.77;93829.34;5053369;28;20501;-41
2022/04/30 06:23:52;;;;;;;9.00;6.88;;;;;;;20.97;43.68;93833.75;5053030;28;20021;-42
2022/04/30 06:26:18;;;;;;;;;;;;;;;21.46;43.10;93829.03;5053443;28;20051;-40
2022/04/30 06:28:43;;;;;;;8.07;6.82;;;;;;;22.08;40.58;93820.03;5052914;28;19909;-42
2022/04/30 06:31:09;;;;;;;8.20;7.40;;;;;;;22.38;38.33;93825.28;5052880;28;20029;-43
2022/04/30 06:33:35;;;;;;;7.65;6.85;;;;;;;23.37;38.14;93827.91;5052715;28;20079;-41
2022/04/30 06:36:00;;;;;;;8.70;7.80;;;;;;;23.98;35.80;93831.78;5051822;28;20616;-43
2022/04/30 06:38:26;;;;;;;7.85;7.05;;;;;;;24.27;35.72;93831.84;5051452;28;20024;-40
2022/04/30 06:40:51;;;;;;;7.38;6.35;;;;;;;24.78;34.47;93832.22;5052672;28;20028;-43
2022/04/30 06:43:17;;;;;;;7.60;6.80;;;;;;;24.96;33.88;93835.19;5050203;28;20506;-42
2022/04/30 06:45:43;;;;;;;7.35;6.65;;;;;;;24.80;32.02;93823.84;5052465;28;20048;-44
2022/04/30 06:48:08;;;;;;;6.70;6.10;;;;;;;24.25;33.35;93828.19;5052573;28;20053;-44
2022/04/30 06:50:33;;;;;;;10.52;7.68;;;;;;;23.08;35.53;93828.50;5052770;28;20024;-43
2022/04/30 06:58:27;;;;;;;11.40;10.20;;;;;;;20.84;41.32;93816.78;5052240;28;20044;-42
2022/04/30 07:03:27;;;;;;;12.18;9.20;;;;;;;19.90;44.43;93819.84;5051953;28;20064;-41
2022/04/30 07:06:03;;;;;;;9.73;7.97;;;;;;;20.40;43.29;93800.69;5051711;28;20047;-41
2022/04/30 07:08:31;;;;;;;11.10;8.45;;;;;;;20.96;42.91;93815.44;5052425;28;20025;-41
2022/04/30 07:10:58;;;;;;;9.60;8.30;;;;;;;21.41;41.23;93804.13;5051847;28;20029;-42
2022/04/30 07:13:23;;;;;;;12.10;9.77;;;;;;;21.46;41.37;93808.66;5052334;28;20414;-42
2022/04/30 07:15:48;;;;;;;11.60;10.02;;;;;;;22.09;41.19;93804.63;5052207;28;20029;-43
2022/04/30 07:18:14;;;;;;;28.13;11.38;;;;;;;22.33;39.64;93805.97;5052148;28;20041;-41
2022/04/30 07:20:40;;;;;;;15.13;11.25;;;;;;;23.08;37.81;93811.59;5051734;28;20087;-42
2022/04/30 07:23:05;;;;;;;11.55;9.65;;;;;;;22.47;36.75;93804.69;5052008;28;20021;-42
2022/04/30 07:25:31;;;;;;;17.70;11.32;;;;;;;22.87;37.18;93811.13;5051857;28;20552;-44
2022/04/30 07:27:56;;;;;;;9.25;8.18;;;;;;;23.50;38.08;93815.91;5051479;28;20025;-43
2022/04/30 07:30:22;;;;;;;10.25;6.32;;;;;;;24.50;35.47;93816.72;5051922;28;20547;-41
2022/04/30 07:32:47;;;;;;;8.23;7.03;;;;;;;23.75;36.19;93809.44;5051947;28;20506;-41
2022/04/30 07:35:12;;;;;;;9.23;7.35;;;;;;;24.03;35.50;93808.06;5051211;28;20071;-43
2022/04/30 07:37:38;;;;;;;10.65;6.38;;;;;;;23.49;34.14;93803.19;5051285;28;20025;-44
2022/04/30 07:40:04;;;;;;;21.77;11.18;;;;;;;22.97;33.98;93803.94;5051393;28;20029;-41
2022/04/30 07:42:30;;;;;;;14.32;8.32;;;;;;;22.11;34.61;93808.25;5051375;28;20052;-41
2022/04/30 07:44:59;;;;;;;7.05;5.50;;;;;;;21.22;35.87;93815.63;5050885;28;20522;-41
2022/04/30 07:47:25;;;;;;;7.93;5.78;;;;;;;20.79;36.02;93812.97;5051277;28;20029;-43
2022/04/30 07:49:51;;;;;;;8.75;5.63;;;;;;;20.18;37.74;93793.66;5051746;28;20079;-41
2022/04/30 07:52:17;;;;;;;8.05;5.95;;;;;;;19.73;39.91;93818.03;5051126;28;20025;-41
2022/04/30 07:54:43;;;;;;;7.90;6.00;;;;;;;19.36;40.96;93808.56;5051581;28;20029;-42
2022/04/30 07:57:09;;;;;;;11.50;7.25;;;;;;;18.98;41.76;93811.53;5051369;28;20483;-40
2022/04/30 07:59:34;;;;;;;7.75;6.13;;;;;;;18.56;42.61;93804.44;5051294;28;20124;-40
2022/04/30 08:02:00;;;;;;;9.52;7.05;;;;;;;18.50;43.55;93809.63;5051413;28;20112;-41
2022/04/30 08:04:25;;;;;;;7.57;6.25;;;;;;;18.51;44.23;93813.91;5033326;28;20489;-40
2022/04/30 08:06:51;;;;;;;8.65;6.85;;;;;;;18.72;45.02;93804.84;5046295;28;20025;-40
2022/04/30 08:09:16;;;;;;;7.80;6.15;;;;;;;19.81;44.60;93810.19;5048505;28;20056;-41
2022/04/30 08:11:42;;;;;;;9.93;7.72;;;;;;;21.88;41.19;93806.28;5048583;28;20071;-42
2022/04/30 08:14:07;;;;;;;13.90;7.25;;;;;;;23.54;37.60;93806.97;5049716;28;20029;-43
2022/04/30 08:16:33;;;;;;;15.60;8.90;;;;;;;25.16;33.13;93802.94;5049889;28;20032;-40
2022/04/30 08:18:58;;;;;;;6.63;5.68;;;;;;;25.09;31.92;93814.59;5048104;28;20025;-42
2022/04/30 08:21:24;;;;;;;11.55;9.48;;;;;;;24.32;32.75;93810.91;5048462;28;20430;-40
2022/04/30 08:23:50;;;;;;;12.52;8.57;;;;;;;23.28;34.72;93809.13;5036794;28;20041;-41
2022/04/30 08:26:16;;;;;;;7.85;7.03;;;;;;;22.41;34.44;93790.31;5048400;28;20023;-43
2022/04/30 08:28:42;;;;;;;5.95;5.10;;;;;;;22.36;35.63;93807.56;5048519;28;20494;-43
2022/04/30 08:31:07;;;;;;;5.65;4.85;;;;;;;22.48;35.61;93808.25;5048422;28;20060;-41
2022/04/30 08:33:33;;;;;;;5.80;4.55;;;;;;;23.02;33.74;93802.09;5048021;28;20066;-41
2022/04/30 08:35:58;;;;;;;5.97;5.05;;;;;;;21.88;35.75;93800.66;5046905;28;20036;-43
2022/04/30 08:38:23;;;;;;;10.55;5.55;;;;;;;20.89;37.08;93802.41;5047993;28;20045;-40
2022/04/30 08:40:49;;;;;;;7.25;5.00;;;;;;;21.96;35.48;93794.03;5047015;28;20107;-40
2022/04/30 08:43:15;;;;;;;5.13;4.63;;;;;;;22.56;34.26;93764.41;5046901;28;20055;-40
2022/04/30 08:45:43;;;;;;;4.82;4.40;;;;;;;22.50;34.98;93795.00;5040971;28;20032;-40
2022/04/30 08:48:10;;;;;;;11.60;6.53;;;;;;;22.65;32.73;93781.75;5045683;28;20029;-40
2022/04/30 08:50:36;;;;;;;8.05;4.60;;;;;;;22.89;33.87;93785.88;5028658;28;20634;-40
2022/04/30 08:53:02;;;;;;;5.18;3.92;;;;;;;22.39;32.20;93792.97;5029005;28;20029;-40
2022/04/30 08:55:27;;;;;;;4.70;4.30;;;;;;;21.82;34.43;93786.25;5029803;28;20056;-40
2022/04/30 08:57:53;;;;;;;5.25;3.92;;;;;;;21.77;34.47;93784.50;5030114;28;20029;-41
2022/04/30 09:00:19;;;;;;;4.65;3.90;;;;;;;22.59;33.74;93779.31;5030324;28;20034;-40
2022/04/30 09:02:53;;;;;;;6.55;4.63;;;;;;;23.35;32.79;93789.09;5030348;28;20455;-41
2022/04/30 09:05:19;;;;;;;5.55;3.70;;;;;;;23.92;31.54;93783.53;5028202;28;20069;-41
2022/04/30 09:07:54;;;;;;;4.43;3.75;;;;;;;23.41;31.01;93776.69;5026768;28;20225;-41
2022/04/30 09:10:25;;;;;;;6.43;5.75;;;;;;;24.03;31.79;93780.59;5027156;28;20029;-40
2022/04/30 09:12:54;;;;;;;5.35;4.03;;;;;;;24.21;34.42;93785.69;5039294;28;20068;-40
2022/04/30 09:15:20;;;;;;;4.50;4.10;;;;;;;24.67;31.64;93779.44;5046185;28;20025;-41
2022/04/30 09:17:58;;;;;;;7.38;3.55;;;;;;;25.29;31.23;93776.69;5041671;28;20525;-40
2022/04/30 09:20:24;;;;;;;7.32;4.35;;;;;;;25.40;32.24;93783.53;5047655;28;20395;-44
2022/04/30 09:22:49;;;;;;;12.40;5.72;;;;;;;25.37;31.19;93767.81;5046775;28;20039;-43
2022/04/30 09:25:15;;;;;;;3.83;3.47;;;;;;;25.62;28.97;93770.38;5048756;28;20040;-41
2022/04/30 09:27:53;;;;;;;6.88;3.90;;;;;;;25.89;29.51;93767.31;5048017;28;20502;-42
2022/04/30 09:30:29;;;;;;;4.00;3.60;;;;;;;25.36;30.01;93769.22;5045040;28;20486;-43
2022/04/30 09:33:12;;;;;;;5.60;3.13;;;;;;;25.92;28.43;93768.84;5046531;28;20458;-45
2022/04/30 09:38:25;;;;;;;4.05;2.92;;;;;;;26.22;27.63;93755.25;5047423;28;20087;-41
2022/04/30 09:40:55;;;;;;;3.38;2.72;;;;;;;26.12;29.07;93768.97;5048438;28;20104;-41
2022/04/30 09:43:21;;;;;;;3.63;2.50;;;;;;;25.52;28.40;93767.09;5047825;28;20045;-41
2022/04/30 09:45:47;;;;;;;2.65;2.45;;;;;;;25.78;29.65;93764.69;5048471;28;20017;-41
2022/04/30 09:56:37;;;;;;;4.55;2.88;;;;;;;26.14;24.76;93743.59;5028434;28;20121;-43
2022/04/30 09:59:08;;;;;;;2.40;2.20;;;;;;;25.37;27.73;93748.78;5029098;28;20032;-41
2022/04/30 10:01:35;;;;;;;14.02;2.80;;;;;;;25.15;29.14;93749.88;5029727;28;20026;-42
2022/04/30 10:04:09;;;;;;;1.65;1.55;;;;;;;25.53;28.99;93743.84;5031690;28;20034;-42
2022/04/30 10:06:36;;;;;;;4.90;2.08;;;;;;;26.24;26.87;93746.84;5030830;28;20025;-42
2022/04/30 10:09:06;;;;;;;2.25;1.88;;;;;;;25.55;25.99;93726.25;5042162;28;20387;-45
2022/04/30 10:11:54;;;;;;;2.05;1.90;;;;;;;25.67;27.08;93740.16;5050018;28;20090;-42
2022/04/30 10:14:34;;;;;;;2.30;2.08;;;;;;;24.86;27.76;93733.75;5050135;28;20025;-41
2022/04/30 10:17:13;;;;;;;2.20;2.00;;;;;;;23.85;28.93;93726.09;5050120;28;20099;-41
2022/04/30 10:19:39;;;;;;;2.65;2.38;;;;;;;24.30;29.87;93731.09;5051481;28;20028;-42
2022/04/30 10:22:13;;;;;;;2.33;2.13;;;;;;;24.84;28.01;93728.00;5052055;28;20055;-42
2022/04/30 10:24:47;;;;;;;2.22;2.00;;;;;;;24.18;29.93;93728.41;5053050;28;20413;-41
2022/04/30 10:27:13;;;;;;;2.13;2.00;;;;;;;23.74;30.95;93726.22;5052906;28;20025;-41
2022/04/30 10:29:54;;;;;;;2.53;2.33;;;;;;;23.04;30.95;93721.22;5052868;28;20565;-41
2022/04/30 10:32:26;;;;;;;5.60;2.97;;;;;;;23.60;31.15;93729.06;5053196;28;20100;-42
2022/04/30 10:34:53;;;;;;;2.45;2.25;;;;;;;24.52;29.24;93707.47;5052795;28;20111;-41
2022/04/30 10:37:30;;;;;;;3.97;2.80;;;;;;;24.80;27.52;93717.25;5052690;28;20486;-43
2022/04/30 10:39:57;;;;;;;2.53;2.28;;;;;;;24.08;29.61;93725.84;5052754;28;20029;-42
2022/04/30 10:42:41;;;;;;;3.97;2.67;;;;;;;23.63;32.32;93715.81;5052380;28;20029;-43
2022/04/30 10:45:11;;;;;;;2.40;1.92;;;;;;;24.01;30.02;93704.31;5052586;28;20049;-41
2022/04/30 10:47:48;;;;;;;7.05;3.15;;;;;;;24.27;31.33;93715.44;5052863;28;20036;-42
2022/04/30 10:50:14;;;;;;;3.97;3.00;;;;;;;24.18;31.50;93713.56;5052871;28;20035;-42
2022/04/30 10:52:40;;;;;;;3.78;3.17;;;;;;;24.83;28.84;93712.44;5052415;28;20029;-42
2022/04/30 10:55:05;;;;;;;4.20;2.47;;;;;;;25.58;28.60;93701.63;5051230;28;20025;-41
2022/04/30 10:57:40;;;;;;;2.22;2.03;;;;;;;25.73;28.12;93712.16;5052349;28;20025;-43
2022/04/30 11:00:06;;;;;;;2.03;1.83;;;;;;;25.69;30.02;93707.03;5052669;28;20123;-41
2022/04/30 11:02:32;;;;;;;2.90;2.40;;;;;;;25.83;32.73;93704.81;5052558;28;20029;-43
2022/04/30 11:04:58;;;;;;;2.53;1.65;;;;;;;24.96;29.88;93708.06;5052056;28;20509;-43
2022/04/30 11:07:26;;;;;;;2.47;1.50;;;;;;;24.03;30.15;93698.78;5052228;28;20025;-42
2022/04/30 11:09:52;;;;;;;2.75;1.73;;;;;;;23.67;31.20;93713.91;5052231;28;20025;-42
2022/04/30 11:12:17;;;;;;;1.55;1.45;;;;;;;23.39;32.75;93700.50;5052004;28;20036;-43
2022/04/30 11:14:46;;;;;;;2.80;1.52;;;;;;;22.11;32.46;93695.06;5051282;28;20056;-42
2022/04/30 11:17:11;;;;;;;2.63;1.60;;;;;;;21.39;35.57;93700.06;5052157;28;20047;-41
2022/04/30 11:19:41;;;;;;;1.60;1.50;;;;;;;21.57;36.04;93704.66;5052240;28;20543;-41
2022/04/30 11:22:09;;;;;;;3.08;1.60;;;;;;;21.14;37.43;93707.09;5052183;28;20029;-41
2022/04/30 11:24:34;;;;;;;6.47;1.90;;;;;;;20.52;35.64;93706.09;5052254;28;20029;-41
2022/04/30 11:27:09;;;;;;;3.72;2.15;;;;;;;19.91;36.49;93714.81;5052103;28;20414;-43
2022/04/30 11:29:37;;;;;;;5.78;1.85;;;;;;;19.63;36.79;93708.88;5052112;28;20107;-41
2022/04/30 11:32:06;;;;;;;1.50;1.40;;;;;;;19.34;38.00;93708.38;5051873;28;20063;-41
2022/04/30 11:34:31;;;;;;;2.60;1.65;;;;;;;19.30;38.61;93704.53;5051627;28;20037;-41
2022/04/30 11:36:59;;;;;;;1.73;1.63;;;;;;;19.31;39.15;93698.34;5051792;28;20032;-41
2022/04/30 11:39:25;;;;;;;2.63;1.63;;;;;;;19.19;40.15;93711.53;5051882;28;20032;-41
2022/04/30 11:41:55;;;;;;;2.25;1.75;;;;;;;19.36;40.93;93705.69;5051235;28;20111;-41
2022/04/30 11:44:25;;;;;;;3.95;1.95;;;;;;;19.98;39.15;93702.66;5051426;28;20113;-41
2022/04/30 11:46:51;;;;;;;1.38;1.27;;;;;;;20.07;38.75;93704.66;5051267;28;20495;-42
2022/04/30 11:49:22;;;;;;;4.75;1.88;;;;;;;19.94;39.88;93694.75;5051705;28;20029;-42
2022/04/30 11:51:50;;;;;;;1.60;1.33;;;;;;;19.94;36.41;93705.22;5051391;28;20067;-42
2022/04/30 11:54:17;;;;;;;1.38;1.27;;;;;;;19.42;37.48;93703.31;5051743;28;20032;-43
2022/04/30 11:56:43;;;;;;;1.50;1.40;;;;;;;19.13;37.37;93699.94;5050354;28;20024;-41
2022/04/30 11:59:09;;;;;;;1.60;1.20;;;;;;;18.94;36.82;93688.88;5051225;28;20036;-43
2022/04/30 12:01:39;;;;;;;2.08;1.48;;;;;;;18.71;39.07;93694.31;5051540;28;20024;-41
2022/04/30 12:04:11;;;;;;;1.40;1.30;;;;;;;18.19;38.38;93697.00;5051157;28;20029;-41
2022/04/30 12:06:38;;;;;;;5.18;2.15;;;;;;;17.99;41.03;93692.78;5051371;28;20028;-41
2022/04/30 12:09:20;;;;;;;1.48;1.30;;;;;;;17.88;40.32;93702.50;5043499;28;20037;-41
2022/04/30 12:11:51;;;;;;;4.40;1.33;;;;;;;17.81;40.53;93694.28;5048469;28;20037;-41